Time;durP1;ratioP1;P1;durP2;ratioP2;P2;SDS_P1;SDS_P2;PMS_P1;PMS_P2;Temp;Humidity;BMP_temperature;BMP_pressure;BME280_temperature;BME280_humidity;BME280_pressure;Samples;Min_cycle;Max_cycle;Signal;HPM_P1;HPM_P2
2023/10/10 00:01:17;;;;;;;11.65;4.97;;;14.60;99.90;;;;;;5141636;27;20051;-57
2023/10/10 00:03:45;;;;;;;10.85;4.97;;;14.80;99.90;;;;;;5141590;27;20510;-58
2023/10/10 00:06:13;;;;;;;10.93;5.45;;;14.80;99.90;;;;;;5140700;27;20042;-58
2023/10/10 00:08:41;;;;;;;11.02;5.32;;;14.70;99.90;;;;;;5141837;27;20083;-58
2023/10/10 00:11:18;;;;;;;9.77;5.15;;;14.70;99.90;;;;;;5140418;27;20039;-58
2023/10/10 00:13:46;;;;;;;9.63;5.10;;;14.80;99.90;;;;;;5141020;27;20178;-58
2023/10/10 00:16:24;;;;;;;8.45;5.00;;;14.70;99.90;;;;;;5140942;27;20051;-58
2023/10/10 00:18:50;;;;;;;13.55;5.75;;;14.60;99.90;;;;;;5140553;27;20046;-58
2023/10/10 00:21:23;;;;;;;10.70;5.30;;;14.70;99.90;;;;;;5141861;27;20031;-58
2023/10/10 00:23:50;;;;;;;11.73;5.10;;;14.70;99.90;;;;;;5140119;27;20043;-58
2023/10/10 00:26:22;;;;;;;10.70;5.13;;;14.70;99.90;;;;;;5141860;27;20039;-58
2023/10/10 00:28:55;;;;;;;8.88;5.78;;;14.70;99.90;;;;;;5140545;27;20065;-58
2023/10/10 00:31:26;;;;;;;10.30;5.85;;;14.70;99.90;;;;;;5141605;27;20047;-58
2023/10/10 00:33:52;;;;;;;14.63;6.75;;;14.80;99.90;;;;;;5141584;27;20050;-58
2023/10/10 00:36:22;;;;;;;9.55;6.20;;;14.80;99.90;;;;;;5140183;27;20047;-58
2023/10/10 00:38:50;;;;;;;13.05;7.00;;;14.70;99.90;;;;;;5141393;28;20058;-59
2023/10/10 00:41:15;;;;;;;11.65;6.88;;;14.80;99.90;;;;;;5140032;28;20055;-58
2023/10/10 00:43:42;;;;;;;16.38;7.50;;;14.90;99.90;;;;;;5140980;28;20058;-58
2023/10/10 00:46:11;;;;;;;15.18;7.85;;;14.90;99.90;;;;;;5140265;28;20397;-58
2023/10/10 00:48:44;;;;;;;13.25;7.28;;;14.90;99.90;;;;;;5140957;28;20047;-58
2023/10/10 00:51:20;;;;;;;13.90;7.40;;;14.70;99.90;;;;;;5141651;28;20092;-58
2023/10/10 00:54:08;;;;;;;14.93;8.40;;;14.80;99.90;;;;;;5140022;28;20117;-58
2023/10/10 00:56:35;;;;;;;12.52;7.47;;;14.90;99.90;;;;;;5141106;28;20039;-58
2023/10/10 00:59:03;;;;;;;14.95;7.68;;;14.90;99.90;;;;;;5140991;28;20206;-58
2023/10/10 01:01:29;;;;;;;12.48;8.63;;;14.70;99.90;;;;;;5140746;28;20162;-57
2023/10/10 01:03:55;;;;;;;13.43;8.13;;;15.00;99.90;;;;;;5141206;28;20451;-58
2023/10/10 01:06:29;;;;;;;13.80;7.50;;;14.90;99.90;;;;;;5121197;28;20039;-58
2023/10/10 01:09:20;;;;;;;15.70;7.97;;;14.90;99.90;;;;;;5141711;28;20071;-58
2023/10/10 01:11:48;;;;;;;13.15;8.00;;;14.90;99.90;;;;;;5140591;28;20039;-58
2023/10/10 01:14:18;;;;;;;12.88;7.80;;;14.80;99.90;;;;;;5140777;28;20050;-58
2023/10/10 01:16:54;;;;;;;13.95;7.80;;;14.80;99.90;;;;;;5141142;28;20078;-58
2023/10/10 01:19:21;;;;;;;12.00;7.40;;;14.90;99.90;;;;;;5139842;28;20047;-58
2023/10/10 01:21:57;;;;;;;14.70;7.90;;;14.80;99.90;;;;;;5141359;28;20072;-58
2023/10/10 01:24:27;;;;;;;12.38;7.57;;;15.00;99.90;;;;;;5140249;27;20035;-58
2023/10/10 01:27:03;;;;;;;15.10;7.68;;;14.80;99.90;;;;;;5143857;27;20086;-58
2023/10/10 01:29:39;;;;;;;13.48;7.85;;;15.00;99.90;;;;;;5144996;27;20115;-58
2023/10/10 01:32:05;;;;;;;13.23;7.40;;;14.90;99.90;;;;;;5143647;27;20576;-58
2023/10/10 01:34:31;;;;;;;12.77;6.78;;;14.80;99.90;;;;;;5122388;28;20051;-58
2023/10/10 01:37:00;;;;;;;15.05;7.90;;;14.80;99.90;;;;;;5122777;28;20042;-58
2023/10/10 01:39:45;;;;;;;13.85;7.13;;;15.00;99.90;;;;;;5124090;28;20115;-58
2023/10/10 01:42:12;;;;;;;11.65;6.90;;;15.00;99.90;;;;;;5123835;28;20043;-58
2023/10/10 01:44:38;;;;;;;12.07;6.85;;;14.90;99.90;;;;;;5122865;28;20050;-60
2023/10/10 01:47:09;;;;;;;12.18;7.65;;;15.00;99.90;;;;;;5123836;28;20040;-58
2023/10/10 01:49:35;;;;;;;13.23;7.53;;;15.00;99.90;;;;;;5122535;28;20125;-58
2023/10/10 01:52:01;;;;;;;16.85;7.68;;;14.90;99.90;;;;;;5124091;28;20051;-58
2023/10/10 01:54:41;;;;;;;12.85;6.82;;;14.80;99.90;;;;;;5123090;28;20078;-58
2023/10/10 01:57:09;;;;;;;13.20;7.05;;;14.70;99.90;;;;;;5104664;28;20115;-58
2023/10/10 01:59:37;;;;;;;13.90;7.40;;;14.70;99.90;;;;;;5124289;28;20344;-57
2023/10/10 02:02:10;;;;;;;12.93;7.78;;;14.80;99.90;;;;;;5121883;28;20122;-58
2023/10/10 02:04:36;;;;;;;12.45;7.50;;;14.90;99.90;;;;;;5123957;28;20062;-58
2023/10/10 02:07:13;;;;;;;12.68;7.30;;;14.90;99.90;;;;;;5122584;28;20043;-57
2023/10/10 02:09:40;;;;;;;14.20;7.13;;;14.70;99.90;;;;;;5123685;28;20050;-58
2023/10/10 02:12:12;;;;;;;13.20;6.43;;;14.60;99.90;;;;;;5123548;28;20069;-57
2023/10/10 02:14:42;;;;;;;12.43;6.85;;;14.80;99.90;;;;;;5122439;28;20083;-58
2023/10/10 02:17:21;;;;;;;10.43;6.57;;;14.60;99.90;;;;;;5123737;28;20048;-58
2023/10/10 02:19:57;;;;;;;12.30;6.68;;;14.80;99.90;;;;;;5122195;28;20095;-58
2023/10/10 02:22:32;;;;;;;11.43;6.97;;;14.70;99.90;;;;;;5122912;28;20040;-58
2023/10/10 02:25:46;;;;;;;14.13;6.43;;;14.60;99.90;;;;;;5106157;28;20043;-58
2023/10/10 02:27:56;;;;;;;10.55;6.78;;;14.70;99.90;;;;;;5110186;28;20056;-58
2023/10/10 02:30:36;;;;;;;13.02;6.55;;;14.70;99.90;;;;;;5123467;28;20116;-58
2023/10/10 02:35:55;;;;;;;11.57;6.47;;;14.70;99.90;;;;;;5137406;27;20058;-58
2023/10/10 02:38:32;;;;;;;13.80;7.32;;;14.60;99.90;;;;;;5143991;27;20039;-58
2023/10/10 02:43:54;;;;;;;12.65;6.60;;;14.40;99.90;;;;;;5143798;27;20122;-58
2023/10/10 02:46:33;;;;;;;12.20;7.30;;;14.40;99.90;;;;;;5143025;27;20043;-57
2023/10/10 02:49:02;;;;;;;9.60;6.72;;;14.50;99.90;;;;;;5124003;27;20046;-58
2023/10/10 02:51:27;;;;;;;13.05;7.57;;;14.50;99.90;;;;;;5143582;27;20039;-57
2023/10/10 02:53:53;;;;;;;15.50;8.32;;;14.40;99.90;;;;;;5141855;27;20042;-58
2023/10/10 02:56:20;;;;;;;14.90;7.95;;;14.50;99.90;;;;;;5142839;27;20490;-58
2023/10/10 02:58:48;;;;;;;12.93;7.72;;;14.30;99.90;;;;;;5142451;27;20075;-57
2023/10/10 03:03:59;;;;;;;17.75;7.85;;;14.40;99.90;;;;;;5143561;27;20360;-58
2023/10/10 03:06:28;;;;;;;13.07;7.38;;;14.50;99.90;;;;;;5141791;27;20739;-58
2023/10/10 03:09:12;;;;;;;16.17;8.02;;;14.60;99.90;;;;;;5143541;27;20047;-58
2023/10/10 03:11:53;;;;;;;17.17;8.63;;;14.60;99.90;;;;;;5123968;27;20047;-58
2023/10/10 03:14:28;;;;;;;12.20;7.35;;;14.50;99.90;;;;;;5142321;27;20043;-58
2023/10/10 03:17:05;;;;;;;12.55;7.60;;;14.70;99.90;;;;;;5142907;27;20058;-58
2023/10/10 03:19:38;;;;;;;14.63;7.80;;;14.50;99.90;;;;;;5140941;27;20557;-58
2023/10/10 03:25:04;;;;;;;13.82;8.15;;;14.70;99.90;;;;;;5142396;27;20062;-58
2023/10/10 03:27:49;;;;;;;;;;;14.70;99.90;;;;;;5141409;27;20047;-58
2023/10/10 03:30:50;;;;;;;13.70;7.65;;;14.70;99.90;;;;;;5143146;27;20365;-58
2023/10/10 03:33:09;;;;;;;13.07;8.05;;;14.70;99.90;;;;;;5141508;27;20043;-58
2023/10/10 03:38:45;;;;;;;12.90;8.10;;;14.70;99.90;;;;;;5122128;28;20086;-58
2023/10/10 05:25:15;;;;;;;20.60;10.63;;;14.80;99.90;;;;;;5144603;27;20043;-58
2023/10/10 05:27:43;;;;;;;19.00;11.13;;;14.70;99.90;;;;;;5143304;27;20075;-57
2023/10/10 05:30:57;;;;;;;18.42;10.70;;;14.60;99.90;;;;;;5144656;27;20054;-56
2023/10/10 05:33:00;;;;;;;21.30;12.10;;;14.90;99.90;;;;;;5128613;27;20053;-56
2023/10/10 05:35:49;;;;;;;20.50;11.80;;;14.90;99.90;;;;;;5128838;27;20058;-57
2023/10/10 05:38:15;;;;;;;19.88;12.73;;;14.70;99.90;;;;;;5120686;28;20047;-56
2023/10/10 05:40:43;;;;;;;24.13;13.02;;;14.70;99.90;;;;;;5118829;28;20104;-57
2023/10/10 05:43:14;;;;;;;23.98;14.55;;;14.70;99.90;;;;;;5120257;28;20040;-57
2023/10/10 05:45:41;;;;;;;27.05;13.57;;;14.60;99.90;;;;;;5119177;28;20089;-56
2023/10/10 05:48:07;;;;;;;22.70;13.02;;;14.60;99.90;;;;;;5119181;28;20089;-58
2023/10/10 05:50:32;;;;;;;25.73;13.77;;;14.70;99.90;;;;;;5119877;28;20083;-56
2023/10/10 05:53:00;;;;;;;26.85;14.57;;;14.90;99.90;;;;;;5119240;28;20039;-56
2023/10/10 05:55:28;;;;;;;26.55;14.80;;;15.00;99.90;;;;;;5119665;28;20047;-56
2023/10/10 05:57:57;;;;;;;25.92;15.02;;;15.00;99.90;;;;;;5117951;28;20047;-59
2023/10/10 06:00:27;;;;;;;26.75;15.20;;;14.90;99.90;;;;;;5119515;28;20059;-60
2023/10/10 06:02:53;;;;;;;28.83;15.07;;;14.90;99.90;;;;;;5118838;28;20145;-59
2023/10/10 06:05:18;;;;;;;27.17;15.10;;;14.70;99.90;;;;;;5119214;28;20079;-59
2023/10/10 06:07:44;;;;;;;26.90;15.13;;;15.00;99.90;;;;;;5119175;28;20066;-59
2023/10/10 06:10:17;;;;;;;28.63;15.73;;;14.70;99.90;;;;;;5118110;28;20047;-58
2023/10/10 06:12:47;;;;;;;30.50;17.45;;;15.00;99.90;;;;;;5118226;28;20522;-59
2023/10/10 06:15:17;;;;;;;29.20;16.25;;;14.60;99.90;;;;;;5118141;28;20623;-59
2023/10/10 06:18:08;;;;;;;31.17;16.08;;;14.90;99.90;;;;;;5101238;28;20051;-59
2023/10/10 06:20:43;;;;;;;29.30;16.13;;;14.90;99.90;;;;;;5119253;28;20040;-59
2023/10/10 06:23:11;;;;;;;36.17;19.17;;;14.70;99.90;;;;;;5116266;27;20109;-57
2023/10/10 06:25:37;;;;;;;34.10;18.08;;;14.60;99.90;;;;;;5119215;28;20063;-57
2023/10/10 06:28:06;;;;;;;40.00;18.70;;;14.70;99.90;;;;;;5117874;28;20096;-57
2023/10/10 06:30:37;;;;;;;38.53;19.98;;;14.60;99.90;;;;;;5119036;28;20052;-57
2023/10/10 06:33:14;;;;;;;38.70;21.00;;;14.60;99.90;;;;;;5118043;28;20065;-56
2023/10/10 06:35:40;;;;;;;42.45;22.05;;;14.70;99.90;;;;;;5130211;27;20054;-56
2023/10/10 06:38:10;;;;;;;43.33;22.85;;;14.80;99.90;;;;;;5141575;27;20095;-57
2023/10/10 06:40:52;;;;;;;45.45;22.77;;;15.00;99.90;;;;;;5141584;27;20075;-56
2023/10/10 06:43:20;;;;;;;42.95;23.05;;;15.00;99.90;;;;;;5143329;27;20035;-56
2023/10/10 06:45:52;;;;;;;41.72;21.92;;;14.80;99.90;;;;;;5142109;27;20055;-56
2023/10/10 06:48:21;;;;;;;43.05;21.13;;;14.80;99.90;;;;;;5143280;27;20385;-57
2023/10/10 06:50:49;;;;;;;46.22;22.25;;;15.20;99.90;;;;;;5124751;27;20047;-56
2023/10/10 06:53:36;;;;;;;41.20;21.70;;;15.00;99.90;;;;;;5141849;27;20050;-56
2023/10/10 06:56:43;;;;;;;43.67;22.73;;;15.00;99.90;;;;;;5126854;27;20077;-57
2023/10/10 06:59:03;;;;;;;38.33;22.13;;;15.00;99.90;;;;;;5121649;28;20503;-57
2023/10/10 07:01:28;;;;;;;38.95;20.33;;;15.00;99.90;;;;;;5102814;28;20055;-57
2023/10/10 07:03:54;;;;;;;38.25;21.63;;;14.90;99.90;;;;;;5112144;27;20449;-57
2023/10/10 07:06:23;;;;;;;37.33;20.30;;;15.20;99.90;;;;;;5134816;27;20142;-56
2023/10/10 07:11:34;;;;;;;35.20;19.05;;;15.30;99.90;;;;;;5141731;27;20122;-56
2023/10/10 07:13:59;;;;;;;34.38;19.05;;;15.10;99.90;;;;;;5142007;27;20035;-55
2023/10/10 07:16:25;;;;;;;35.78;18.40;;;15.30;99.90;;;;;;5142521;27;20032;-56
2023/10/10 07:18:56;;;;;;;34.15;19.73;;;15.20;99.90;;;;;;5141615;27;20047;-56
2023/10/10 07:21:36;;;;;;;37.58;19.42;;;15.20;99.90;;;;;;5142792;27;20434;-57
2023/10/10 07:24:12;;;;;;;33.55;18.75;;;15.30;99.90;;;;;;5116557;27;20206;-58
2023/10/10 07:26:41;;;;;;;31.55;17.95;;;15.60;99.90;;;;;;5130008;27;20052;-56
2023/10/10 07:29:27;;;;;;;30.83;18.05;;;15.30;99.90;;;;;;5139249;27;20039;-56
2023/10/10 07:32:16;;;;;;;34.88;17.88;;;15.40;99.90;;;;;;5141111;27;20078;-57
2023/10/10 07:34:49;;;;;;;33.45;18.83;;;15.40;99.90;;;;;;5136142;27;20445;-57
2023/10/10 07:37:15;;;;;;;33.05;18.80;;;15.80;99.90;;;;;;5130345;27;20050;-57
2023/10/10 07:40:05;;;;;;;32.85;18.67;;;15.80;99.90;;;;;;5138334;27;20047;-57
2023/10/10 07:42:31;;;;;;;31.42;18.40;;;15.60;99.90;;;;;;5142515;27;20055;-57
2023/10/10 07:45:03;;;;;;;34.15;18.63;;;15.60;99.90;;;;;;5140887;27;20047;-57
2023/10/10 07:47:32;;;;;;;31.63;18.95;;;15.90;99.90;;;;;;5142337;27;20051;-57
2023/10/10 07:50:08;;;;;;;33.92;20.30;;;15.70;99.90;;;;;;5141457;27;20047;-57
2023/10/10 07:52:35;;;;;;;36.17;21.50;;;15.80;99.90;;;;;;5113251;27;20054;-57
2023/10/10 07:55:04;;;;;;;36.80;22.10;;;15.90;99.90;;;;;;5130734;27;20511;-57
2023/10/10 07:57:55;;;;;;;38.13;22.27;;;15.80;99.90;;;;;;5120586;27;20051;-56
2023/10/10 08:00:17;;;;;;;41.10;24.27;;;15.70;99.90;;;;;;5121566;28;20048;-57
2023/10/10 08:02:49;;;;;;;43.30;25.65;;;16.00;99.90;;;;;;5101369;28;20044;-57
2023/10/10 08:05:19;;;;;;;43.40;27.23;;;16.00;99.90;;;;;;5101890;28;20507;-57
2023/10/10 08:07:48;;;;;;;48.00;27.48;;;16.10;99.90;;;;;;5112453;27;20047;-57
2023/10/10 08:11:05;;;;;;;50.10;28.13;;;16.30;99.90;;;;;;5128465;27;20052;-57
2023/10/10 08:13:09;;;;;;;52.17;29.75;;;16.10;99.90;;;;;;5127020;27;20047;-57
2023/10/10 08:15:48;;;;;;;52.42;29.95;;;16.10;99.90;;;;;;5140684;27;20043;-57
2023/10/10 08:18:22;;;;;;;50.30;29.90;;;16.20;99.90;;;;;;5141068;27;20039;-57
2023/10/10 08:23:13;;;;;;;55.78;30.55;;;16.30;99.90;;;;;;5130589;27;20046;-57
2023/10/10 08:25:38;;;;;;;54.88;30.63;;;16.30;99.90;;;;;;5129884;27;20047;-57
2023/10/10 08:28:04;;;;;;;50.53;29.98;;;16.40;99.90;;;;;;5127588;27;20130;-57
2023/10/10 08:30:30;;;;;;;51.95;30.40;;;16.30;99.90;;;;;;5130086;27;20044;-57
2023/10/10 08:32:57;;;;;;;48.72;31.08;;;16.50;99.90;;;;;;5124722;27;20043;-57
2023/10/10 08:35:23;;;;;;;48.85;30.67;;;16.40;99.90;;;;;;5113722;28;20119;-57
2023/10/10 08:37:53;;;;;;;52.65;31.38;;;16.50;99.90;;;;;;5141470;27;20071;-57
2023/10/10 08:40:22;;;;;;;47.35;31.67;;;16.50;99.90;;;;;;5121453;28;20079;-57
2023/10/10 08:42:50;;;;;;;49.72;29.85;;;16.50;99.90;;;;;;5141631;28;20043;-58
2023/10/10 08:45:24;;;;;;;48.30;29.42;;;16.80;99.90;;;;;;5121475;28;20035;-57
2023/10/10 08:48:00;;;;;;;48.92;30.45;;;16.70;99.90;;;;;;5122626;28;20414;-58
2023/10/10 08:50:27;;;;;;;49.22;29.65;;;16.80;99.90;;;;;;5139718;28;20078;-57
2023/10/10 08:52:53;;;;;;;46.92;29.48;;;16.90;99.90;;;;;;5139989;28;20078;-57
2023/10/10 08:55:28;;;;;;;46.90;29.42;;;17.00;99.90;;;;;;5141479;28;20039;-57
2023/10/10 08:57:57;;;;;;;47.22;29.38;;;17.10;99.90;;;;;;5120447;28;20274;-57
2023/10/10 09:00:27;;;;;;;46.65;28.77;;;17.10;99.90;;;;;;5102218;28;20152;-57
2023/10/10 09:02:56;;;;;;;44.40;28.85;;;17.00;99.90;;;;;;5101311;28;20040;-57
2023/10/10 09:05:24;;;;;;;42.50;27.48;;;17.10;99.90;;;;;;5120198;28;20051;-56
2023/10/10 09:07:53;;;;;;;40.38;28.13;;;17.20;99.90;;;;;;5120413;28;20051;-57
2023/10/10 09:10:28;;;;;;;38.40;26.67;;;17.20;99.90;;;;;;5120327;28;20040;-57
2023/10/10 09:12:58;;;;;;;43.55;27.30;;;17.30;99.90;;;;;;5129120;28;20047;-57
2023/10/10 09:15:24;;;;;;;43.30;27.83;;;17.30;99.90;;;;;;5129250;28;20039;-57
2023/10/10 09:17:55;;;;;;;40.15;26.70;;;17.40;99.90;;;;;;5131018;28;20067;-58
2023/10/10 09:20:28;;;;;;;45.47;29.50;;;17.60;99.90;;;;;;5129517;28;20065;-57
2023/10/10 09:23:11;;;;;;;44.85;29.58;;;17.60;99.90;;;;;;5127954;28;20043;-55
2023/10/10 09:25:48;;;;;;;41.03;28.60;;;17.70;99.90;;;;;;5129151;28;20078;-57
2023/10/10 09:28:16;;;;;;;46.35;28.05;;;17.70;99.90;;;;;;5127551;28;20069;-57
2023/10/10 09:30:50;;;;;;;47.58;31.73;;;17.70;99.90;;;;;;5130802;28;20039;-57
2023/10/10 09:33:23;;;;;;;48.60;29.65;;;17.60;99.90;;;;;;5129969;28;20056;-57
2023/10/10 09:36:19;;;;;;;48.00;30.15;;;17.70;99.90;;;;;;5128623;28;20046;-57
2023/10/10 09:38:47;;;;;;;48.40;30.08;;;17.70;99.90;;;;;;5130607;28;20043;-57
2023/10/10 09:49:44;;;;;;;48.28;31.00;;;17.80;99.90;;;;;;5130802;27;20082;-57
2023/10/10 09:57:42;;;;;;;45.55;29.40;;;17.80;99.90;;;;;;5120670;28;20183;-57
2023/10/10 10:00:15;;;;;;;48.50;31.13;;;17.80;99.90;;;;;;5123235;28;20051;-57
2023/10/10 10:02:49;;;;;;;48.05;30.33;;;17.80;98.80;;;;;;5122420;28;20053;-57
2023/10/10 10:05:21;;;;;;;53.03;32.15;;;17.80;99.90;;;;;;5123158;28;20089;-58
2023/10/10 10:08:21;;;;;;;46.42;29.73;;;17.90;99.90;;;;;;5122876;28;20126;-56
2023/10/10 10:11:11;;;;;;;47.25;29.25;;;17.90;99.90;;;;;;5101544;28;20048;-57
2023/10/10 10:13:58;;;;;;;50.22;31.00;;;17.90;97.70;;;;;;5123162;28;20054;-58
2023/10/10 10:16:51;;;;;;;50.10;31.90;;;18.00;94.90;;;;;;5123474;28;20122;-57
2023/10/10 10:19:20;;;;;;;47.03;30.48;;;18.10;93.60;;;;;;5121427;28;20050;-57
2023/10/10 10:21:53;;;;;;;52.13;30.25;;;18.10;87.10;;;;;;5123571;28;20046;-57
2023/10/10 10:24:32;;;;;;;53.03;31.50;;;18.20;87.90;;;;;;5121559;28;20085;-57
2023/10/10 10:27:25;;;;;;;49.25;30.40;;;18.20;90.30;;;;;;5122194;28;20081;-57
2023/10/10 10:29:55;;;;;;;50.25;28.10;;;18.30;88.20;;;;;;5104903;28;20135;-57
2023/10/10 10:32:24;;;;;;;45.63;29.40;;;18.40;94.70;;;;;;5124094;27;20386;-57
2023/10/10 10:34:56;;;;;;;46.38;29.33;;;18.60;93.30;;;;;;5135017;27;20073;-57
2023/10/10 10:37:28;;;;;;;46.20;29.20;;;18.60;82.70;;;;;;5107072;27;20065;-56
2023/10/10 10:42:51;;;;;;;47.72;30.08;;;18.70;80.10;;;;;;5144087;27;19930;-57
2023/10/10 10:45:38;;;;;;;48.30;30.42;;;18.80;83.10;;;;;;5142077;27;20570;-57
2023/10/10 10:48:29;;;;;;;48.63;29.70;;;18.70;62.20;;;;;;5143386;27;20042;-57
2023/10/10 10:51:22;;;;;;;44.67;26.73;;;18.80;68.00;;;;;;5125284;27;20047;-57
2023/10/10 10:53:50;;;;;;;43.65;29.48;;;18.90;65.20;;;;;;5141336;27;20104;-57
2023/10/10 11:01:21;;;;;;;45.05;27.33;;;18.90;47.00;;;;;;5141821;27;20490;-57
2023/10/10 11:03:51;;;;;;;40.33;28.98;;;19.00;56.20;;;;;;5143680;27;20058;-57
2023/10/10 11:06:20;;;;;;;40.20;26.73;;;18.90;47.20;;;;;;5141375;27;20073;-57
2023/10/10 11:09:09;;;;;;;40.92;27.83;;;18.80;46.30;;;;;;5126451;27;20078;-57
2023/10/10 11:14:29;;;;;;;41.78;27.55;;;18.80;59.30;;;;;;5141981;27;20058;-57
2023/10/10 11:16:57;;;;;;;40.15;25.25;;;18.70;50.00;;;;;;5142902;27;20100;-57
2023/10/10 11:22:00;;;;;;;40.58;27.50;;;18.80;55.00;;;;;;5143391;27;20414;-57
2023/10/10 11:24:31;;;;;;;42.03;24.83;;;18.90;50.90;;;;;;5142052;27;20079;-57
2023/10/10 11:27:07;;;;;;;35.85;24.92;;;19.00;52.00;;;;;;5140552;27;20049;-57
2023/10/10 11:29:44;;;;;;;37.15;23.38;;;19.20;55.10;;;;;;5142277;27;20047;-57
2023/10/10 11:32:13;;;;;;;38.85;23.92;;;19.50;49.10;;;;;;5140863;27;20055;-57
2023/10/10 11:34:49;;;;;;;36.50;24.77;;;19.60;41.30;;;;;;5136112;27;20036;-57
2023/10/10 11:37:23;;;;;;;38.45;24.30;;;19.50;28.60;;;;;;5121216;28;20032;-56
2023/10/10 11:42:56;;;;;;;41.35;25.25;;;19.60;27.40;;;;;;5122385;28;20107;-57
2023/10/10 11:45:26;;;;;;;34.80;24.08;;;19.80;26.50;;;;;;5120322;28;20072;-57
2023/10/10 11:47:53;;;;;;;32.17;22.35;;;19.80;22.10;;;;;;5121073;28;20050;-57
2023/10/10 11:50:56;;;;;;;35.50;22.08;;;19.90;25.40;;;;;;5121387;28;20064;-57
2023/10/10 11:53:23;;;;;;;32.50;21.95;;;19.90;29.40;;;;;;5119582;28;20407;-58
2023/10/10 11:55:52;;;;;;;35.50;22.80;;;19.80;19.20;;;;;;5121537;28;20119;-58
2023/10/10 11:58:18;;;;;;;31.40;20.95;;;19.70;18.50;;;;;;5120012;28;20078;-57
2023/10/10 12:01:05;;;;;;;33.58;21.25;;;19.90;23.70;;;;;;5103037;28;20051;-57
2023/10/10 12:04:04;;;;;;;34.53;21.17;;;20.00;21.90;;;;;;5121132;28;20539;-56
2023/10/10 12:06:26;;;;;;;32.33;20.55;;;20.20;21.20;;;;;;5118803;28;20050;-58
2023/10/10 12:09:01;;;;;;;29.05;19.38;;;20.30;19.10;;;;;;5120810;28;20096;-57
2023/10/10 12:11:26;;;;;;;29.98;19.38;;;20.20;12.70;;;;;;5119984;28;20071;-57
2023/10/10 12:13:52;;;;;;;27.23;19.63;;;20.10;6.90;;;;;;5120987;28;20051;-57
2023/10/10 12:16:24;;;;;;;29.42;19.58;;;20.00;15.70;;;;;;5120627;28;20067;-57
2023/10/10 12:18:50;;;;;;;30.75;21.35;;;20.10;13.40;;;;;;5127676;27;20063;-57
2023/10/10 12:21:20;;;;;;;30.63;20.15;;;20.00;13.40;;;;;;5130050;27;20050;-57
2023/10/10 12:23:55;;;;;;;31.70;19.38;;;20.10;16.90;;;;;;5121184;27;20099;-58
2023/10/10 12:26:22;;;;;;;30.10;20.23;;;20.00;14.20;;;;;;5130616;27;20054;-58
2023/10/10 12:28:48;;;;;;;30.65;19.42;;;20.00;18.10;;;;;;5132148;27;20525;-57
2023/10/10 12:31:18;;;;;;;32.20;20.63;;;20.10;20.00;;;;;;5129728;27;20047;-58
2023/10/10 12:33:53;;;;;;;32.55;21.15;;;20.00;19.50;;;;;;5131622;27;20075;-58
2023/10/10 12:36:23;;;;;;;31.77;20.77;;;20.00;21.80;;;;;;5126902;27;20051;-58
2023/10/10 12:38:48;;;;;;;31.42;20.10;;;20.00;21.40;;;;;;5129952;27;20551;-58
2023/10/10 12:41:20;;;;;;;35.63;21.20;;;19.90;23.90;;;;;;5129773;27;20098;-57
2023/10/10 12:43:50;;;;;;;36.50;21.52;;;19.90;20.80;;;;;;5130514;28;20524;-58
2023/10/10 12:46:20;;;;;;;26.65;19.13;;;19.90;27.10;;;;;;5130596;28;20067;-57
2023/10/10 12:48:52;;;;;;;32.97;20.63;;;19.90;27.60;;;;;;5109590;28;20043;-57
2023/10/10 12:51:22;;;;;;;34.72;22.38;;;19.90;31.20;;;;;;5111238;28;20511;-58
2023/10/10 12:53:47;;;;;;;31.17;20.77;;;19.80;27.30;;;;;;5128600;28;20043;-58
2023/10/10 12:56:21;;;;;;;33.80;21.88;;;19.80;31.10;;;;;;5129802;28;20466;-57
2023/10/10 12:58:55;;;;;;;32.28;20.05;;;19.80;31.20;;;;;;5129123;28;20073;-58
2023/10/10 13:01:25;;;;;;;34.90;21.77;;;19.80;42.50;;;;;;5128095;28;20055;-57
2023/10/10 13:03:51;;;;;;;31.92;22.33;;;19.80;39.80;;;;;;5130970;28;20031;-57
2023/10/10 13:06:17;;;;;;;32.67;22.50;;;19.80;46.20;;;;;;5129535;28;20059;-58
2023/10/10 13:08:54;;;;;;;34.17;21.95;;;19.80;37.30;;;;;;5129126;28;20053;-57
2023/10/10 13:11:32;;;;;;;32.90;21.48;;;19.90;37.30;;;;;;5129619;28;20122;-57
2023/10/10 13:14:08;;;;;;;33.05;20.25;;;19.90;31.00;;;;;;5109910;28;20048;-57
2023/10/10 13:19:11;;;;;;;32.63;21.60;;;20.00;17.90;;;;;;5129278;28;20067;-57
2023/10/10 13:21:38;;;;;;;31.13;21.48;;;20.00;25.60;;;;;;5139904;27;20042;-57
2023/10/10 13:24:09;;;;;;;33.88;21.27;;;19.90;34.70;;;;;;5143832;27;20051;-57
2023/10/10 13:26:40;;;;;;;32.80;20.45;;;19.90;36.10;;;;;;5123335;27;20077;-57
2023/10/10 13:29:06;;;;;;;30.80;19.98;;;19.80;35.40;;;;;;5134983;27;20050;-57
2023/10/10 13:31:32;;;;;;;35.58;21.35;;;19.80;39.80;;;;;;5111918;28;20126;-57
2023/10/10 13:33:58;;;;;;;34.00;21.88;;;19.80;39.30;;;;;;5124436;28;20047;-57
2023/10/10 13:36:25;;;;;;;32.25;20.75;;;19.70;41.10;;;;;;5124424;27;20039;-57
2023/10/10 13:38:57;;;;;;;29.60;20.35;;;19.70;45.60;;;;;;5144785;27;20047;-57
2023/10/10 13:41:24;;;;;;;32.60;20.83;;;19.60;43.80;;;;;;5143899;27;20039;-57
2023/10/10 13:43:52;;;;;;;30.25;19.63;;;19.60;45.70;;;;;;5144528;27;20073;-57
2023/10/10 13:46:20;;;;;;;29.58;19.90;;;19.70;54.90;;;;;;5140108;27;20055;-55
2023/10/10 13:48:46;;;;;;;31.83;20.48;;;19.60;45.40;;;;;;5132160;27;20048;-57
2023/10/10 13:51:15;;;;;;;32.92;21.33;;;19.70;47.20;;;;;;5130650;27;20519;-57
2023/10/10 13:53:43;;;;;;;31.48;21.10;;;19.70;41.30;;;;;;5122494;28;20043;-57
2023/10/10 13:56:10;;;;;;;30.05;19.30;;;19.70;32.70;;;;;;5123485;28;20044;-57
2023/10/10 13:58:37;;;;;;;36.05;22.45;;;19.70;28.70;;;;;;5104681;28;20438;-57
2023/10/10 14:01:26;;;;;;;36.55;21.85;;;19.50;27.20;;;;;;5123126;28;20043;-57
2023/10/10 14:04:04;;;;;;;33.40;19.90;;;19.60;29.40;;;;;;5129352;27;20047;-57
2023/10/10 14:06:45;;;;;;;33.10;19.98;;;19.60;34.10;;;;;;5132231;27;20566;-57
2023/10/10 14:09:11;;;;;;;32.38;21.08;;;19.60;40.80;;;;;;5125854;27;20563;-57
2023/10/10 14:11:38;;;;;;;33.13;20.80;;;19.50;40.70;;;;;;5122557;28;20044;-56
2023/10/10 14:14:06;;;;;;;35.15;22.52;;;19.50;41.80;;;;;;5122415;28;20063;-57
2023/10/10 14:16:32;;;;;;;36.10;22.25;;;19.50;38.50;;;;;;5122797;28;20036;-57
2023/10/10 14:19:01;;;;;;;35.55;20.80;;;19.50;42.60;;;;;;5134790;27;20051;-57
2023/10/10 14:21:27;;;;;;;37.33;23.75;;;19.50;44.30;;;;;;5134142;27;20036;-57
2023/10/10 14:24:08;;;;;;;38.67;22.77;;;19.50;46.10;;;;;;5131286;27;20062;-58
2023/10/10 14:26:37;;;;;;;33.47;23.27;;;19.40;46.80;;;;;;5103762;28;20261;-57
2023/10/10 14:29:07;;;;;;;37.35;23.98;;;19.50;49.50;;;;;;5122478;28;20103;-57
2023/10/10 14:31:42;;;;;;;32.03;23.63;;;19.50;48.20;;;;;;5121209;28;20059;-57
2023/10/10 14:34:11;;;;;;;35.78;23.85;;;19.50;51.80;;;;;;5124701;27;20047;-57
2023/10/10 14:36:39;;;;;;;41.17;24.50;;;19.40;51.50;;;;;;5132323;27;20071;-57
2023/10/10 14:39:28;;;;;;;36.00;24.02;;;19.40;54.50;;;;;;5133614;27;20069;-57
2023/10/10 14:42:00;;;;;;;38.30;24.13;;;19.40;52.80;;;;;;5134346;27;20044;-57
2023/10/10 14:44:28;;;;;;;41.30;23.42;;;19.50;52.50;;;;;;5133186;27;20046;-57
2023/10/10 14:46:54;;;;;;;42.05;26.13;;;19.50;54.60;;;;;;5130468;27;20100;-57
2023/10/10 14:49:28;;;;;;;39.10;25.42;;;19.50;50.20;;;;;;5131533;27;20091;-57
2023/10/10 14:51:56;;;;;;;36.28;24.77;;;19.50;47.00;;;;;;5115222;27;20039;-57
2023/10/10 14:54:23;;;;;;;37.35;24.38;;;19.50;49.60;;;;;;5130418;27;20067;-56
2023/10/10 14:56:52;;;;;;;36.75;23.45;;;19.60;46.50;;;;;;5124129;27;20482;-57
2023/10/10 14:59:25;;;;;;;33.92;22.25;;;19.60;46.20;;;;;;5135003;27;20538;-56
2023/10/10 15:01:52;;;;;;;35.45;21.98;;;19.60;40.70;;;;;;5132879;27;20523;-58
2023/10/10 15:18:17;;;;;;;32.30;22.23;;;19.50;22.40;;;;;;5852805;23;21493;-59
2023/10/10 15:24:50;;;;;;;33.45;21.00;;;19.40;21.60;;;;;;4882992;24;20055;-57
2023/10/10 15:27:33;;;;;;;33.17;21.90;;;19.30;21.20;;;;;;4812589;29;20563;-58
2023/10/10 15:29:59;;;;;;;31.70;20.42;;;19.30;20.50;;;;;;4810776;29;20077;-58
2023/10/10 15:32:24;;;;;;;33.22;20.20;;;19.30;28.40;;;;;;4813352;29;20082;-57
2023/10/10 15:34:50;;;;;;;33.92;20.75;;;19.30;29.90;;;;;;4812015;29;20054;-58
2023/10/10 15:37:19;;;;;;;35.50;22.05;;;19.20;30.70;;;;;;4813358;29;20066;-58
2023/10/10 15:39:44;;;;;;;31.85;21.05;;;19.20;30.10;;;;;;4813136;29;20133;-58
2023/10/10 15:42:13;;;;;;;31.80;20.77;;;19.10;36.60;;;;;;4812614;29;20523;-58
2023/10/10 15:44:41;;;;;;;33.72;21.10;;;19.10;40.00;;;;;;4812373;29;20091;-58
2023/10/10 15:47:06;;;;;;;31.33;20.60;;;19.10;39.70;;;;;;4811888;29;20074;-57
2023/10/10 15:49:32;;;;;;;31.83;20.98;;;19.00;40.70;;;;;;4812897;29;20043;-57